Linden Pride — H3VP — position and weather

sailwx.info

Track history (hours):
 
Tides and Currents Weather Stations Pressure Air Temp Water Temp Dewpoint Dewpoint Depression Visibility Wind Speed Wind Dir Waves Ship Positions

Linden Pride

Last reported at 2017-Oct-17 16:38 UTC. Time now 2017-Oct-23 00:54 UTC.
Position N 29°23' W 094°49'.

Length 230 m; beam 36.6 m.

Type: Tanker. MMSI: 356677000.

Date/timePositionNaut miles runAvg speedWind from/ knotsBaromVisibWave heightAir tempDewpointWater temp
2017-Oct-17 16:38N 29°23' W 094°49'211.1
2017-Oct-17 16:30N 29°25' W 094°50'510.9
2017-Oct-17 16:00N 29°30' W 094°52'510.7
2017-Oct-17 15:30N 29°34' W 094°55'5 9.9
2017-Oct-17 15:00N 29°38' W 094°58'4 8.9
2017-Oct-17 14:30N 29°42' W 095°01'4 7.1
2017-Oct-17 14:00N 29°45' W 095°04'3 5.3
2017-Oct-17 13:30N 29°44' W 095°07'3 5.9
2017-Oct-17 13:00N 29°45' W 095°10'2 3.9
2017-Oct-17 12:30N 29°44' W 095°12'0 0.0
2017-Oct-17 07:33N 29°44' W 095°12'0 0.0
2017-Oct-17 07:09N 29°44' W 095°12'0 0.0
2017-Oct-17 06:51N 29°44' W 095°12'0 0.0
2017-Oct-17 05:21N 29°44' W 095°12'0 0.0
2017-Oct-17 04:57N 29°44' W 095°12'0 0.0
2017-Oct-17 04:21N 29°44' W 095°12'0 0.0
2017-Oct-17 03:03N 29°44' W 095°12'0 0.0
2017-Oct-17 02:39N 29°44' W 095°12'  
2017-Oct-13 17:25N 29°44' W 095°12'1 2.1
2017-Oct-13 16:56N 29°45' W 095°11'2 5.0
2017-Oct-13 16:30N 29°44' W 095°09'3 5.6
2017-Oct-13 15:58N 29°45' W 095°06'3 6.1
2017-Oct-13 15:30N 29°44' W 095°03'3 6.4
2017-Oct-13 15:00N 29°42' W 094°60'5 9.9
2017-Oct-13 14:30N 29°37' W 094°58'611.2
2017-Oct-13 14:00N 29°33' W 094°54'611.2
2017-Oct-13 13:30N 29°28' W 094°51'611.1
2017-Oct-13 12:59N 29°23' W 094°48'  
2017-Oct-09 02:02N 29°06' W 094°18'012.3
2017-Oct-09 02:00N 29°06' W 094°18'714.0
2017-Oct-09 01:30N 29°02' W 094°11'  
Track history (hours):
 
Tides and Currents Weather Stations Pressure Air Temp Water Temp Dewpoint Dewpoint Depression Visibility Wind Speed Wind Dir Waves Ship Positions

Linden Pride

Last reported at 2017-Oct-17 16:38 UTC. Time now 2017-Oct-23 00:54 UTC.
Position N 29°23' W 094°49'.

Length 230 m; beam 36.6 m.

Type: Tanker. MMSI: 356677000.

Date/timePositionNaut miles runAvg speedWind from/ knotsBaromVisibWave heightAir tempDewpointWater temp
2017-Oct-17 16:38N 29°23' W 094°49'211.1
2017-Oct-17 16:30N 29°25' W 094°50'510.9
2017-Oct-17 16:00N 29°30' W 094°52'510.7
2017-Oct-17 15:30N 29°34' W 094°55'5 9.9
2017-Oct-17 15:00N 29°38' W 094°58'4 8.9
2017-Oct-17 14:30N 29°42' W 095°01'4 7.1
2017-Oct-17 14:00N 29°45' W 095°04'3 5.3
2017-Oct-17 13:30N 29°44' W 095°07'3 5.9
2017-Oct-17 13:00N 29°45' W 095°10'2 3.9
2017-Oct-17 12:30N 29°44' W 095°12'0 0.0
2017-Oct-17 07:33N 29°44' W 095°12'0 0.0
2017-Oct-17 07:09N 29°44' W 095°12'0 0.0
2017-Oct-17 06:51N 29°44' W 095°12'0 0.0
2017-Oct-17 05:21N 29°44' W 095°12'0 0.0
2017-Oct-17 04:57N 29°44' W 095°12'0 0.0
2017-Oct-17 04:21N 29°44' W 095°12'0 0.0
2017-Oct-17 03:03N 29°44' W 095°12'0 0.0
2017-Oct-17 02:39N 29°44' W 095°12'  
2017-Oct-13 17:25N 29°44' W 095°12'1 2.1
2017-Oct-13 16:56N 29°45' W 095°11'2 5.0
2017-Oct-13 16:30N 29°44' W 095°09'3 5.6
2017-Oct-13 15:58N 29°45' W 095°06'3 6.1
2017-Oct-13 15:30N 29°44' W 095°03'3 6.4
2017-Oct-13 15:00N 29°42' W 094°60'5 9.9
2017-Oct-13 14:30N 29°37' W 094°58'611.2
2017-Oct-13 14:00N 29°33' W 094°54'611.2
2017-Oct-13 13:30N 29°28' W 094°51'611.1
2017-Oct-13 12:59N 29°23' W 094°48'  
2017-Oct-09 02:02N 29°06' W 094°18'012.3
2017-Oct-09 02:00N 29°06' W 094°18'714.0
2017-Oct-09 01:30N 29°02' W 094°11'  

Dump ship's entire track history